Time;durP1;ratioP1;P1;durP2;ratioP2;P2;SDS_P1;SDS_P2;PMS_P1;PMS_P2;Temp;Humidity;BMP_temperature;BMP_pressure;BME280_temperature;BME280_humidity;BME280_pressure;Samples;Min_cycle;Max_cycle;Signal;HPM_P1;HPM_P2
2023/12/21 00:01:10;;;;;;;15.63;3.80;;;9.10;99.90;;;;;;5025783;28;20465;-67
2023/12/21 00:03:36;;;;;;;15.25;4.00;;;9.10;99.90;;;;;;5009063;28;20064;-66
2023/12/21 00:06:03;;;;;;;13.15;3.78;;;9.30;99.90;;;;;;5009879;28;20061;-66
2023/12/21 00:08:29;;;;;;;11.10;4.15;;;9.30;99.90;;;;;;4992412;28;20058;-66
2023/12/21 00:10:55;;;;;;;12.70;3.35;;;9.10;99.90;;;;;;4993148;28;20068;-66
2023/12/21 00:13:26;;;;;;;12.18;3.88;;;9.30;99.90;;;;;;5009427;28;20046;-66
2023/12/21 00:15:55;;;;;;;9.88;3.33;;;8.90;99.90;;;;;;5011186;28;20184;-66
2023/12/21 00:18:21;;;;;;;12.70;3.10;;;9.00;99.90;;;;;;5008352;28;20446;-66
2023/12/21 00:20:49;;;;;;;14.10;3.88;;;8.90;99.90;;;;;;5009228;28;20669;-65
2023/12/21 00:23:16;;;;;;;17.88;3.70;;;8.90;99.90;;;;;;5010116;28;20056;-66
2023/12/21 00:25:43;;;;;;;16.63;3.65;;;9.30;99.90;;;;;;5009534;28;20049;-67
2023/12/21 00:28:09;;;;;;;14.20;3.92;;;9.00;99.90;;;;;;5010178;28;20045;-66
2023/12/21 00:30:35;;;;;;;11.98;3.15;;;8.90;99.90;;;;;;4993007;28;20072;-66
2023/12/21 00:33:02;;;;;;;8.18;3.13;;;9.10;99.90;;;;;;5009917;28;20146;-67
2023/12/21 00:35:28;;;;;;;13.05;3.95;;;9.20;99.90;;;;;;5009713;28;20477;-66
2023/12/21 00:37:54;;;;;;;13.73;3.83;;;9.20;99.90;;;;;;5009912;28;20142;-66
2023/12/21 00:40:21;;;;;;;11.98;3.47;;;9.10;99.90;;;;;;5009585;28;20053;-67
2023/12/21 00:42:47;;;;;;;12.93;3.38;;;9.30;99.90;;;;;;5009350;28;20351;-67
2023/12/21 00:45:14;;;;;;;8.77;2.90;;;9.30;99.90;;;;;;4993812;28;20060;-66
2023/12/21 00:47:40;;;;;;;12.73;3.05;;;9.30;99.90;;;;;;5009685;28;20133;-66
2023/12/21 00:50:08;;;;;;;10.63;3.38;;;9.50;99.90;;;;;;4993635;28;20049;-66
2023/12/21 00:52:35;;;;;;;12.93;3.40;;;9.00;99.90;;;;;;4993412;28;20107;-66
2023/12/21 00:55:02;;;;;;;10.88;3.15;;;9.30;99.90;;;;;;5009681;28;20057;-66
2023/12/21 00:57:29;;;;;;;14.25;3.40;;;9.40;99.90;;;;;;4993541;28;20167;-66
2023/12/21 00:59:56;;;;;;;11.13;3.33;;;9.10;99.90;;;;;;5009655;28;20401;-67
2023/12/21 01:02:22;;;;;;;8.43;2.90;;;9.50;99.90;;;;;;5009956;28;20049;-66
2023/12/21 01:04:48;;;;;;;12.50;2.95;;;9.00;99.90;;;;;;5011441;28;20057;-67
2023/12/21 01:07:15;;;;;;;14.43;3.90;;;9.40;99.90;;;;;;5010001;28;20431;-67
2023/12/21 01:09:41;;;;;;;15.38;3.28;;;9.40;99.90;;;;;;4994034;28;20061;-67
2023/12/21 01:12:08;;;;;;;10.48;3.13;;;9.40;99.90;;;;;;5009857;28;20057;-66
2023/12/21 01:14:34;;;;;;;8.30;3.13;;;9.50;99.90;;;;;;5011399;28;20069;-66
2023/12/21 01:17:01;;;;;;;17.45;4.05;;;9.20;99.90;;;;;;4993952;28;20050;-66
2023/12/21 01:19:29;;;;;;;19.65;5.45;;;9.50;99.90;;;;;;5012645;28;20470;-67
2023/12/21 01:21:58;;;;;;;14.40;3.80;;;9.10;99.90;;;;;;5013871;28;20085;-67
2023/12/21 01:24:24;;;;;;;21.70;5.70;;;9.50;99.90;;;;;;5013947;28;20053;-67
2023/12/21 01:26:50;;;;;;;21.50;5.30;;;9.10;99.90;;;;;;5015264;28;20054;-66
2023/12/21 01:29:17;;;;;;;26.52;6.68;;;9.40;99.90;;;;;;5015347;28;20115;-67
2023/12/21 01:31:43;;;;;;;19.05;5.38;;;9.60;99.90;;;;;;5015706;28;20092;-67
2023/12/21 01:34:09;;;;;;;12.55;5.13;;;9.50;99.90;;;;;;5014235;28;20058;-65
2023/12/21 01:36:37;;;;;;;10.55;3.72;;;9.40;99.90;;;;;;5013661;28;20259;-66
2023/12/21 01:39:06;;;;;;;18.50;6.18;;;9.10;99.90;;;;;;5013874;28;20052;-66
2023/12/21 01:41:34;;;;;;;16.25;5.78;;;9.60;99.90;;;;;;5015295;28;20061;-67
2023/12/21 01:44:02;;;;;;;16.20;3.85;;;9.60;99.90;;;;;;5013690;28;20046;-66
2023/12/21 01:46:29;;;;;;;12.55;3.45;;;9.60;99.90;;;;;;5013220;28;20057;-67
2023/12/21 01:48:57;;;;;;;11.35;3.20;;;9.10;99.90;;;;;;5014043;28;20392;-67
2023/12/21 01:51:24;;;;;;;12.80;3.38;;;9.50;99.90;;;;;;5013323;28;20137;-67
2023/12/21 01:53:53;;;;;;;20.23;4.43;;;9.10;99.90;;;;;;5013719;28;20054;-67
2023/12/21 01:56:20;;;;;;;20.13;6.40;;;9.40;99.90;;;;;;4996745;28;20477;-67
2023/12/21 01:58:49;;;;;;;21.45;5.53;;;9.50;99.90;;;;;;4997400;28;20056;-66
2023/12/21 02:01:19;;;;;;;19.15;5.72;;;9.20;99.90;;;;;;5013528;28;20053;-66
2023/12/21 02:03:46;;;;;;;21.40;5.65;;;9.20;99.90;;;;;;5013879;28;20362;-66
2023/12/21 02:06:12;;;;;;;17.27;5.40;;;9.50;99.90;;;;;;5013405;28;20049;-67
2023/12/21 02:08:38;;;;;;;33.38;6.95;;;9.60;99.90;;;;;;5013329;28;20061;-67
2023/12/21 02:11:08;;;;;;;28.88;6.70;;;9.10;99.90;;;;;;5013539;28;20060;-66
2023/12/21 02:13:34;;;;;;;20.00;4.60;;;9.20;99.90;;;;;;5013600;28;20355;-66
2023/12/21 02:16:06;;;;;;;29.63;7.45;;;9.50;99.90;;;;;;5014062;28;20042;-66
2023/12/21 02:18:33;;;;;;;19.85;4.88;;;9.50;99.90;;;;;;5014539;28;20052;-66
2023/12/21 02:21:00;;;;;;;15.07;4.25;;;9.20;99.90;;;;;;5013242;28;20073;-66
2023/12/21 02:23:29;;;;;;;13.00;3.25;;;9.10;99.90;;;;;;4997371;28;20046;-66
2023/12/21 02:25:56;;;;;;;16.17;4.22;;;9.50;99.90;;;;;;5013308;28;20050;-67
2023/12/21 02:28:22;;;;;;;12.43;3.10;;;9.40;99.90;;;;;;5013710;28;20060;-65
2023/12/21 02:30:49;;;;;;;14.55;3.92;;;9.10;99.90;;;;;;5013835;28;20435;-66
2023/12/21 02:33:15;;;;;;;18.27;4.50;;;9.10;99.90;;;;;;5013596;28;20162;-66
2023/12/21 02:35:42;;;;;;;26.95;6.35;;;9.40;99.90;;;;;;4997905;28;20152;-64
2023/12/21 02:38:09;;;;;;;19.20;4.55;;;9.10;99.90;;;;;;4997768;28;20046;-64
2023/12/21 02:40:36;;;;;;;19.73;4.90;;;9.10;99.90;;;;;;5013671;28;20057;-65
2023/12/21 02:43:02;;;;;;;18.08;4.78;;;9.40;99.90;;;;;;5013261;28;20057;-64
2023/12/21 02:45:28;;;;;;;14.32;4.22;;;9.10;99.90;;;;;;4996785;28;20046;-67
2023/12/21 02:47:55;;;;;;;17.98;4.47;;;9.50;99.90;;;;;;5013253;28;20053;-66
2023/12/21 02:50:21;;;;;;;18.02;4.75;;;9.40;99.90;;;;;;5013186;28;20053;-66
2023/12/21 02:52:47;;;;;;;20.42;5.57;;;9.50;99.90;;;;;;4997348;28;20053;-66
2023/12/21 02:55:16;;;;;;;18.63;5.40;;;9.50;99.90;;;;;;5013218;28;20099;-66
2023/12/21 02:57:43;;;;;;;11.18;4.47;;;9.40;99.90;;;;;;5013272;28;20077;-66
2023/12/21 03:00:09;;;;;;;14.85;4.55;;;9.00;99.90;;;;;;5012925;28;20463;-66
2023/12/21 03:02:36;;;;;;;11.70;4.22;;;9.10;99.90;;;;;;5012650;28;20050;-66
2023/12/21 03:05:02;;;;;;;15.93;5.68;;;9.50;99.90;;;;;;5011837;28;20065;-66
2023/12/21 03:07:29;;;;;;;13.65;4.53;;;9.50;99.90;;;;;;4994875;28;20422;-66
2023/12/21 03:09:57;;;;;;;14.50;4.90;;;9.50;99.90;;;;;;5011952;28;20128;-66
2023/12/21 03:12:24;;;;;;;11.70;4.57;;;9.00;99.90;;;;;;5010308;28;20057;-66
2023/12/21 03:14:51;;;;;;;14.40;4.53;;;9.40;99.90;;;;;;5010514;28;20064;-66
2023/12/21 03:17:18;;;;;;;15.50;4.22;;;9.10;99.90;;;;;;5010511;28;20368;-66
2023/12/21 03:19:44;;;;;;;14.15;4.78;;;9.00;99.90;;;;;;5010648;28;20128;-66
2023/12/21 03:22:10;;;;;;;17.33;5.40;;;9.40;99.90;;;;;;5012270;28;20060;-66
2023/12/21 03:24:36;;;;;;;17.13;4.53;;;9.00;99.90;;;;;;5012057;28;20046;-64
2023/12/21 03:27:03;;;;;;;11.95;4.40;;;9.30;99.90;;;;;;5011361;28;20140;-65
2023/12/21 03:29:29;;;;;;;13.75;4.72;;;9.20;99.90;;;;;;5012820;28;20050;-66
2023/12/21 03:31:56;;;;;;;11.95;4.30;;;9.50;99.90;;;;;;5012003;28;20076;-65
2023/12/21 03:34:23;;;;;;;9.13;3.90;;;9.50;99.90;;;;;;5011769;28;20390;-66
2023/12/21 03:36:49;;;;;;;16.50;5.47;;;9.00;99.90;;;;;;5010935;28;20054;-66
2023/12/21 03:39:17;;;;;;;10.25;4.20;;;9.40;99.90;;;;;;5011275;28;20072;-66
2023/12/21 03:41:43;;;;;;;13.05;4.38;;;9.50;99.90;;;;;;5011303;28;20050;-66
2023/12/21 03:44:11;;;;;;;17.55;4.70;;;9.20;99.90;;;;;;5011078;28;20058;-66
2023/12/21 03:46:37;;;;;;;12.43;4.05;;;9.40;99.90;;;;;;5011101;28;20049;-66
2023/12/21 03:49:05;;;;;;;11.95;4.28;;;8.90;99.90;;;;;;5010966;28;20064;-66
2023/12/21 03:51:34;;;;;;;16.52;4.45;;;9.00;99.90;;;;;;5010992;28;20050;-66
2023/12/21 03:54:02;;;;;;;10.27;4.28;;;9.40;99.90;;;;;;5011089;28;20050;-66
2023/12/21 03:56:28;;;;;;;15.90;4.90;;;9.30;99.90;;;;;;4994279;28;20049;-66
2023/12/21 03:58:54;;;;;;;15.98;4.60;;;9.10;99.90;;;;;;5011090;28;20417;-66
2023/12/21 04:01:29;;;;;;;18.15;5.68;;;9.40;99.90;;;;;;5011808;28;20042;-66
2023/12/21 04:03:55;;;;;;;18.95;5.93;;;9.10;99.90;;;;;;5010073;28;20465;-66
2023/12/21 04:06:22;;;;;;;13.02;4.30;;;8.90;99.90;;;;;;5009931;28;20050;-66
2023/12/21 04:08:51;;;;;;;19.08;5.60;;;9.40;99.90;;;;;;5010446;28;20053;-66
2023/12/21 04:11:17;;;;;;;17.63;5.78;;;9.50;99.90;;;;;;5011572;28;20061;-66
2023/12/21 04:13:46;;;;;;;14.38;4.47;;;9.50;99.90;;;;;;5010141;28;20069;-66
2023/12/21 04:16:12;;;;;;;18.35;4.93;;;9.50;99.90;;;;;;5010398;28;20050;-66
2023/12/21 04:18:38;;;;;;;11.88;3.90;;;9.50;99.90;;;;;;5011272;28;20366;-66
2023/12/21 04:21:08;;;;;;;10.20;4.22;;;9.20;99.90;;;;;;5011919;28;20057;-66
2023/12/21 04:23:35;;;;;;;17.88;4.30;;;9.40;99.90;;;;;;4994239;28;20072;-66
2023/12/21 04:26:01;;;;;;;16.75;3.78;;;9.20;99.90;;;;;;5010333;28;20054;-66
2023/12/21 04:28:27;;;;;;;10.00;4.07;;;9.10;99.90;;;;;;5009750;28;20045;-66
2023/12/21 04:30:54;;;;;;;11.65;3.65;;;9.40;99.90;;;;;;5010176;28;20065;-66
2023/12/21 04:33:20;;;;;;;16.75;3.95;;;9.40;99.90;;;;;;5010091;28;20136;-66
2023/12/21 04:35:52;;;;;;;11.23;4.00;;;9.00;99.90;;;;;;5009536;28;20100;-65
2023/12/21 04:38:19;;;;;;;11.68;4.10;;;9.10;99.90;;;;;;4993753;28;20064;-66
2023/12/21 04:40:45;;;;;;;8.77;3.28;;;9.10;99.90;;;;;;5009645;28;20049;-66
2023/12/21 04:43:11;;;;;;;15.13;5.68;;;9.20;99.90;;;;;;5008611;28;20168;-66
2023/12/21 04:45:38;;;;;;;11.35;4.50;;;9.00;99.90;;;;;;5008577;28;20056;-66
2023/12/21 04:48:06;;;;;;;13.80;4.50;;;9.50;99.90;;;;;;5008327;28;20562;-67
2023/12/21 04:50:32;;;;;;;18.40;5.40;;;9.10;99.90;;;;;;5008685;28;20108;-67
2023/12/21 04:52:58;;;;;;;18.58;4.07;;;9.40;99.90;;;;;;5010115;28;20050;-67
2023/12/21 04:55:25;;;;;;;20.83;4.63;;;9.20;99.90;;;;;;4996386;28;20065;-66
2023/12/21 04:57:51;;;;;;;16.80;3.65;;;9.20;99.90;;;;;;5011578;28;20524;-66
2023/12/21 05:00:18;;;;;;;12.32;3.45;;;9.30;99.90;;;;;;5011609;28;20046;-66
2023/12/21 05:02:44;;;;;;;25.88;5.05;;;9.50;99.90;;;;;;5011676;28;20046;-66
2023/12/21 05:05:10;;;;;;;22.25;5.03;;;9.20;99.90;;;;;;4994795;28;20056;-66
2023/12/21 05:07:37;;;;;;;14.52;3.95;;;9.30;99.90;;;;;;5010263;28;20057;-66
2023/12/21 05:10:04;;;;;;;13.93;4.18;;;9.40;99.90;;;;;;4994685;28;20417;-66
2023/12/21 05:12:30;;;;;;;14.07;3.97;;;9.70;99.90;;;;;;5007031;28;20438;-66
2023/12/21 05:14:56;;;;;;;14.15;4.40;;;9.80;99.90;;;;;;4983028;28;20534;-67
2023/12/21 05:17:23;;;;;;;26.08;5.07;;;9.60;99.90;;;;;;5004443;28;20062;-66
2023/12/21 05:19:49;;;;;;;20.15;5.35;;;9.80;99.90;;;;;;5003740;28;20065;-65
2023/12/21 05:22:16;;;;;;;19.13;4.05;;;9.70;99.90;;;;;;4999138;28;20054;-66
2023/12/21 05:24:42;;;;;;;18.58;4.40;;;9.70;99.90;;;;;;5001367;28;20156;-67
2023/12/21 05:27:08;;;;;;;13.20;3.92;;;9.80;99.90;;;;;;5000497;28;20053;-66
2023/12/21 05:29:35;;;;;;;18.45;4.75;;;9.80;99.90;;;;;;5000882;28;20118;-66
2023/12/21 05:32:01;;;;;;;15.65;4.03;;;9.50;99.90;;;;;;5002058;28;20045;-66
2023/12/21 05:34:32;;;;;;;10.70;3.13;;;9.60;99.90;;;;;;4995484;28;20055;-66
2023/12/21 05:36:59;;;;;;;6.32;2.53;;;9.90;99.90;;;;;;4992788;28;20388;-66
2023/12/21 05:39:27;;;;;;;19.15;4.13;;;9.60;99.90;;;;;;4995996;28;20057;-67
2023/12/21 05:41:53;;;;;;;15.98;4.65;;;9.50;99.90;;;;;;5012126;28;20057;-67
2023/12/21 05:44:20;;;;;;;15.80;4.40;;;9.70;99.90;;;;;;4996399;28;20382;-67
2023/12/21 05:46:46;;;;;;;20.83;5.57;;;9.60;99.90;;;;;;5011250;28;20034;-67
2023/12/21 05:49:12;;;;;;;11.13;5.03;;;9.90;99.90;;;;;;5010633;28;20779;-66
2023/12/21 05:51:39;;;;;;;13.77;4.07;;;9.90;99.90;;;;;;5010810;28;20362;-67
2023/12/21 05:54:05;;;;;;;11.07;4.20;;;9.60;99.90;;;;;;5010766;28;20380;-67
2023/12/21 05:56:34;;;;;;;9.18;2.80;;;9.90;99.90;;;;;;4968051;28;1235888;-67
2023/12/21 05:59:01;;;;;;;9.95;3.50;;;9.50;99.90;;;;;;5010482;28;20286;-66
2023/12/21 06:01:34;;;;;;;16.52;6.20;;;9.70;99.90;;;;;;5010852;28;20053;-66
2023/12/21 06:04:00;;;;;;;17.83;6.50;;;9.40;99.90;;;;;;5010653;28;20054;-66
2023/12/21 06:06:27;;;;;;;16.33;5.10;;;9.60;99.90;;;;;;5012368;28;20385;-67
2023/12/21 06:08:53;;;;;;;20.05;6.70;;;9.40;99.90;;;;;;5012821;28;20046;-66
2023/12/21 06:11:19;;;;;;;11.05;4.10;;;9.40;99.90;;;;;;5013084;28;20050;-67
2023/12/21 06:13:45;;;;;;;13.88;5.40;;;9.60;99.90;;;;;;5012645;28;20068;-67
2023/12/21 06:16:12;;;;;;;9.80;3.40;;;9.40;99.90;;;;;;4995383;28;20374;-67
2023/12/21 06:18:39;;;;;;;15.43;5.35;;;9.70;99.90;;;;;;5011064;28;20046;-67
2023/12/21 06:21:07;;;;;;;21.45;6.35;;;9.80;99.90;;;;;;5011215;28;20075;-66
2023/12/21 06:23:33;;;;;;;17.42;5.00;;;9.80;99.90;;;;;;5009412;28;20090;-65
2023/12/21 06:26:00;;;;;;;21.88;6.30;;;9.70;99.90;;;;;;5011808;28;20046;-66
2023/12/21 06:28:26;;;;;;;14.02;4.22;;;9.60;99.90;;;;;;5011814;28;20041;-67
2023/12/21 06:30:53;;;;;;;26.10;6.78;;;9.90;99.90;;;;;;5011642;28;20057;-67
2023/12/21 06:33:19;;;;;;;14.48;3.90;;;9.80;99.90;;;;;;5011007;28;20533;-67
2023/12/21 06:35:46;;;;;;;16.90;4.32;;;9.70;99.90;;;;;;5010927;28;20058;-66
2023/12/21 06:38:12;;;;;;;14.20;5.25;;;9.70;99.90;;;;;;4994457;28;20050;-67
2023/12/21 06:40:39;;;;;;;17.30;6.72;;;9.80;99.90;;;;;;5011902;28;20049;-67
2023/12/21 06:43:06;;;;;;;17.88;5.93;;;9.60;99.90;;;;;;4994944;28;20458;-66
2023/12/21 06:45:36;;;;;;;11.05;4.10;;;9.80;99.90;;;;;;5009543;28;20042;-66
2023/12/21 06:48:03;;;;;;;11.65;2.70;;;9.60;99.90;;;;;;5010966;28;20226;-66
2023/12/21 06:50:30;;;;;;;9.13;2.72;;;9.50;99.90;;;;;;5010722;28;20478;-66
2023/12/21 06:52:56;;;;;;;7.85;2.60;;;9.50;99.90;;;;;;4994029;28;20817;-67
2023/12/21 06:55:22;;;;;;;11.63;3.33;;;9.70;99.90;;;;;;5010229;28;20362;-66
2023/12/21 06:57:49;;;;;;;12.55;3.58;;;9.40;99.90;;;;;;5009633;28;20077;-66
2023/12/21 07:00:16;;;;;;;9.90;3.85;;;9.60;99.90;;;;;;5010853;28;20450;-66
2023/12/21 07:02:42;;;;;;;8.77;3.67;;;9.30;99.90;;;;;;5010715;28;20132;-66
2023/12/21 07:05:09;;;;;;;13.00;3.33;;;9.50;99.90;;;;;;5010070;28;20239;-65
2023/12/21 07:07:35;;;;;;;9.32;3.75;;;9.70;99.90;;;;;;5009087;28;20097;-65
2023/12/21 07:10:02;;;;;;;12.10;3.90;;;9.40;99.90;;;;;;5009596;28;20061;-64
2023/12/21 07:12:28;;;;;;;10.20;3.67;;;9.60;99.90;;;;;;5011785;28;20053;-66
2023/12/21 07:14:55;;;;;;;6.57;3.45;;;9.40;99.90;;;;;;5010788;28;20056;-66
2023/12/21 07:17:23;;;;;;;9.27;3.15;;;9.20;99.90;;;;;;4993447;28;20297;-66
2023/12/21 07:19:50;;;;;;;10.27;3.53;;;9.20;99.90;;;;;;4993798;28;20129;-66
2023/12/21 07:22:16;;;;;;;15.77;3.97;;;9.50;99.90;;;;;;5008985;28;20049;-66
2023/12/21 07:24:42;;;;;;;11.23;4.03;;;9.10;99.90;;;;;;5008061;28;20041;-66
2023/12/21 07:27:09;;;;;;;11.35;3.75;;;9.30;99.90;;;;;;5008696;28;20046;-66
2023/12/21 07:29:35;;;;;;;9.40;3.30;;;9.20;99.90;;;;;;5009989;28;20050;-66
2023/12/21 07:32:02;;;;;;;10.95;3.70;;;9.20;99.90;;;;;;4990895;28;20141;-67
2023/12/21 07:34:28;;;;;;;9.63;3.35;;;9.20;99.90;;;;;;5011117;28;20141;-66
2023/12/21 07:36:55;;;;;;;15.43;4.63;;;9.50;99.90;;;;;;5012145;28;20049;-66
2023/12/21 07:39:21;;;;;;;11.30;4.07;;;9.10;99.90;;;;;;5012705;28;20358;-66
2023/12/21 07:41:48;;;;;;;12.80;4.45;;;9.60;99.90;;;;;;5011423;28;20064;-66
2023/12/21 07:44:14;;;;;;;13.63;4.28;;;9.60;99.90;;;;;;5010780;28;20405;-66
2023/12/21 07:46:43;;;;;;;9.15;4.03;;;9.40;99.90;;;;;;5010702;28;20046;-67
2023/12/21 07:49:11;;;;;;;10.27;3.60;;;9.60;99.90;;;;;;5011429;28;20140;-66
2023/12/21 07:51:38;;;;;;;6.78;2.60;;;9.60;99.90;;;;;;5010648;28;20050;-66
2023/12/21 07:54:04;;;;;;;6.10;2.70;;;9.60;99.90;;;;;;5010804;28;20054;-66
2023/12/21 07:56:30;;;;;;;7.70;2.40;;;9.70;99.90;;;;;;5010673;28;20557;-66
2023/12/21 07:59:04;;;;;;;8.10;3.33;;;9.40;99.90;;;;;;4995613;28;20073;-65
2023/12/21 08:01:31;;;;;;;9.18;2.63;;;9.20;99.90;;;;;;4995462;28;20060;-66
2023/12/21 08:03:58;;;;;;;6.47;2.33;;;9.20;99.90;;;;;;5012445;28;20064;-66
2023/12/21 08:06:25;;;;;;;6.45;2.80;;;9.70;99.90;;;;;;5011879;28;20601;-66
2023/12/21 08:08:56;;;;;;;8.15;3.00;;;9.20;99.90;;;;;;5011550;28;20477;-65
2023/12/21 08:11:22;;;;;;;8.60;3.08;;;9.40;99.90;;;;;;4994143;28;20053;-65
2023/12/21 08:13:50;;;;;;;7.35;2.50;;;9.30;99.90;;;;;;5010377;28;20069;-66
2023/12/21 08:16:17;;;;;;;5.57;3.00;;;9.30;99.90;;;;;;5011436;28;20054;-65
2023/12/21 08:18:44;;;;;;;4.60;2.85;;;9.20;99.90;;;;;;5011572;28;20076;-65
2023/12/21 08:21:11;;;;;;;6.22;2.80;;;9.40;99.90;;;;;;5011317;28;20042;-65
2023/12/21 08:23:39;;;;;;;8.30;2.63;;;9.20;99.90;;;;;;5010064;28;20054;-66
2023/12/21 08:26:06;;;;;;;8.82;3.03;;;9.20;99.90;;;;;;5011244;28;20125;-66
2023/12/21 08:28:32;;;;;;;9.50;3.33;;;9.30;99.90;;;;;;5011161;28;20132;-65
2023/12/21 08:31:00;;;;;;;9.48;3.05;;;9.20;99.90;;;;;;4993937;28;20062;-65
2023/12/21 08:33:26;;;;;;;7.13;2.92;;;9.20;99.90;;;;;;5011160;28;20054;-65
2023/12/21 08:35:53;;;;;;;11.77;3.78;;;9.20;99.90;;;;;;5010301;28;20046;-65
2023/12/21 08:38:20;;;;;;;8.23;2.95;;;9.20;99.90;;;;;;4991808;28;20141;-65
2023/12/21 08:40:47;;;;;;;8.45;3.88;;;9.40;99.90;;;;;;5008528;28;20045;-65
2023/12/21 08:43:14;;;;;;;10.15;3.05;;;9.80;99.90;;;;;;5009475;28;20041;-66
2023/12/21 08:45:40;;;;;;;9.95;3.20;;;9.50;99.90;;;;;;4993835;28;20061;-66
2023/12/21 08:48:07;;;;;;;13.35;3.28;;;9.80;99.90;;;;;;5009501;28;20050;-66
2023/12/21 08:50:33;;;;;;;12.85;4.18;;;9.70;99.90;;;;;;5009898;28;20058;-64
2023/12/21 08:53:00;;;;;;;11.27;3.47;;;9.70;99.90;;;;;;5008902;28;20442;-66
2023/12/21 08:55:29;;;;;;;12.60;3.33;;;9.80;99.90;;;;;;5009460;28;20077;-66
2023/12/21 08:57:57;;;;;;;11.98;3.88;;;9.30;99.90;;;;;;5008766;28;20332;-66
2023/12/21 09:00:24;;;;;;;8.68;3.00;;;9.40;99.90;;;;;;5008064;28;20057;-65
2023/12/21 09:02:51;;;;;;;14.23;4.68;;;9.90;99.90;;;;;;4993067;28;20042;-66
2023/12/21 09:05:17;;;;;;;13.02;4.03;;;10.00;99.90;;;;;;4993512;28;20350;-65
2023/12/21 09:07:44;;;;;;;10.95;3.45;;;9.90;99.90;;;;;;5009325;28;20430;-66
2023/12/21 09:10:11;;;;;;;12.73;4.00;;;9.70;99.90;;;;;;4993132;28;20058;-65
2023/12/21 09:12:37;;;;;;;9.93;3.20;;;9.40;99.90;;;;;;4993388;28;20073;-66
2023/12/21 09:15:04;;;;;;;12.13;3.92;;;9.80;99.90;;;;;;5007379;28;20140;-65
2023/12/21 09:17:31;;;;;;;9.38;2.75;;;9.70;99.90;;;;;;5008762;28;20050;-66
2023/12/21 09:19:57;;;;;;;6.50;2.45;;;9.80;99.90;;;;;;5009165;28;20064;-66
2023/12/21 09:22:24;;;;;;;7.75;2.60;;;9.80;99.90;;;;;;5009134;28;20060;-66
2023/12/21 09:24:50;;;;;;;11.88;3.13;;;9.90;99.90;;;;;;5008780;28;20075;-66
2023/12/21 09:27:16;;;;;;;8.30;2.30;;;9.80;99.90;;;;;;5008702;28;20137;-65
2023/12/21 09:29:43;;;;;;;7.10;2.13;;;9.40;99.90;;;;;;5009366;28;20061;-65
2023/12/21 09:32:10;;;;;;;7.82;2.38;;;9.50;99.90;;;;;;5008331;28;20164;-66
2023/12/21 09:34:37;;;;;;;9.35;2.17;;;10.00;99.90;;;;;;5006377;28;20438;-65
2023/12/21 09:37:04;;;;;;;13.75;3.47;;;10.00;99.90;;;;;;5008425;28;20053;-65
2023/12/21 09:39:31;;;;;;;12.32;3.17;;;9.80;99.90;;;;;;5010368;28;20054;-67
2023/12/21 09:42:01;;;;;;;10.00;3.05;;;10.10;99.90;;;;;;5029192;28;20097;-66
2023/12/21 09:44:31;;;;;;;13.77;3.20;;;10.10;99.90;;;;;;5013470;28;20050;-66
2023/12/21 09:47:00;;;;;;;12.65;3.05;;;10.00;99.90;;;;;;5012482;28;20046;-65
2023/12/21 09:49:28;;;;;;;12.40;3.03;;;9.70;99.90;;;;;;5012849;28;20065;-66
2023/12/21 09:51:55;;;;;;;12.15;3.40;;;9.60;99.90;;;;;;5012549;28;20049;-65
2023/12/21 09:54:22;;;;;;;11.05;2.78;;;9.60;99.90;;;;;;5012583;28;20434;-66
2023/12/21 09:56:50;;;;;;;12.02;2.63;;;9.60;99.90;;;;;;4995873;28;20058;-66
2023/12/21 09:59:17;;;;;;;9.85;2.80;;;10.20;99.90;;;;;;4996539;28;20057;-66
2023/12/21 10:01:43;;;;;;;10.35;2.53;;;10.00;99.90;;;;;;5012537;28;20046;-66
2023/12/21 10:04:13;;;;;;;7.95;2.30;;;10.00;99.90;;;;;;5010797;28;20050;-65
2023/12/21 10:06:39;;;;;;;14.65;2.92;;;9.90;99.90;;;;;;5013063;28;20050;-66
2023/12/21 10:09:06;;;;;;;12.05;2.60;;;10.30;99.90;;;;;;5012318;28;20589;-65
2023/12/21 10:11:32;;;;;;;10.20;2.28;;;10.00;99.90;;;;;;5012312;28;20057;-66
2023/12/21 10:14:01;;;;;;;6.13;2.85;;;10.00;99.90;;;;;;5012607;28;20059;-65
2023/12/21 10:16:29;;;;;;;8.63;2.00;;;10.20;99.90;;;;;;5013437;28;20568;-65
2023/12/21 10:18:55;;;;;;;10.38;2.42;;;10.30;99.90;;;;;;5027896;28;20474;-65
2023/12/21 10:21:22;;;;;;;9.82;2.25;;;10.60;99.90;;;;;;4995220;28;20069;-66
2023/12/21 10:23:52;;;;;;;8.30;1.90;;;10.60;99.90;;;;;;5011764;28;20046;-66
2023/12/21 10:26:19;;;;;;;8.73;2.22;;;10.30;99.90;;;;;;5012054;28;20273;-65
2023/12/21 10:28:46;;;;;;;10.18;2.55;;;10.30;99.90;;;;;;5013127;28;20438;-67
2023/12/21 10:31:13;;;;;;;8.75;2.17;;;10.50;99.90;;;;;;5011497;28;20081;-67
2023/12/21 10:33:42;;;;;;;9.02;2.28;;;11.00;99.90;;;;;;4995901;28;20129;-67
2023/12/21 10:36:08;;;;;;;6.57;2.08;;;10.90;99.90;;;;;;5011267;28;20401;-67
2023/12/21 10:38:34;;;;;;;9.02;2.40;;;11.10;99.90;;;;;;5013024;28;20069;-66
2023/12/21 10:41:05;;;;;;;7.60;2.20;;;10.80;99.90;;;;;;5013177;28;20046;-66
2023/12/21 10:43:35;;;;;;;8.77;2.92;;;10.80;99.90;;;;;;5012038;28;20038;-66
2023/12/21 10:46:03;;;;;;;9.18;2.08;;;11.20;99.90;;;;;;4994915;28;20049;-66
2023/12/21 10:48:32;;;;;;;9.65;2.50;;;10.90;99.90;;;;;;5012616;28;20072;-67
2023/12/21 10:51:01;;;;;;;7.20;2.28;;;10.80;99.90;;;;;;5009658;28;20054;-64
2023/12/21 10:53:29;;;;;;;12.15;2.20;;;10.80;99.90;;;;;;4995826;28;20054;-66
2023/12/21 10:55:58;;;;;;;7.43;2.33;;;10.50;99.90;;;;;;5012480;28;20140;-65
2023/12/21 10:58:27;;;;;;;7.45;2.22;;;10.70;99.90;;;;;;5012851;28;20045;-67
2023/12/21 11:00:58;;;;;;;10.40;2.50;;;10.40;99.90;;;;;;5011339;28;20057;-67
2023/12/21 11:03:25;;;;;;;13.10;2.40;;;10.20;99.90;;;;;;5012374;28;20049;-66
2023/12/21 11:05:52;;;;;;;9.50;2.20;;;10.60;99.90;;;;;;4994914;28;20072;-64
2023/12/21 11:08:19;;;;;;;9.00;2.08;;;10.40;99.90;;;;;;5011477;28;20064;-66
2023/12/21 11:10:46;;;;;;;6.78;2.30;;;10.60;99.90;;;;;;5012245;28;20469;-66
2023/12/21 11:13:13;;;;;;;10.48;2.42;;;11.00;99.90;;;;;;5012153;28;20085;-66
2023/12/21 11:15:40;;;;;;;10.38;2.85;;;10.80;99.90;;;;;;5012493;28;20060;-67
2023/12/21 11:18:15;;;;;;;9.55;2.13;;;10.90;99.90;;;;;;5012051;28;20124;-66
2023/12/21 11:20:50;;;;;;;10.55;2.70;;;11.10;99.90;;;;;;5010831;28;20049;-67
2023/12/21 11:23:16;;;;;;;9.27;2.58;;;11.00;99.90;;;;;;5010982;28;20050;-67
2023/12/21 11:25:43;;;;;;;13.38;3.13;;;10.80;99.90;;;;;;4994123;28;20100;-67
2023/12/21 11:28:09;;;;;;;10.35;2.83;;;10.70;99.90;;;;;;5009882;28;20581;-66
2023/12/21 11:30:36;;;;;;;11.35;2.72;;;10.50;99.90;;;;;;5011820;28;20419;-67
2023/12/21 11:33:09;;;;;;;16.13;3.08;;;11.00;99.90;;;;;;5010683;28;20057;-66
2023/12/21 11:35:37;;;;;;;8.02;3.10;;;10.70;99.90;;;;;;5007518;28;20076;-67
2023/12/21 11:38:08;;;;;;;11.25;2.50;;;11.10;99.90;;;;;;4990133;28;20554;-67
2023/12/21 11:40:41;;;;;;;14.43;3.05;;;10.90;99.90;;;;;;4998776;28;20038;-67
2023/12/21 11:43:19;;;;;;;10.50;2.33;;;10.80;99.90;;;;;;5010568;28;20056;-67
2023/12/21 11:45:47;;;;;;;11.07;2.67;;;10.70;99.90;;;;;;5011955;28;20057;-67
2023/12/21 11:48:19;;;;;;;12.40;2.70;;;10.90;99.90;;;;;;5010274;28;20133;-68
2023/12/21 11:50:47;;;;;;;;;;;11.10;99.90;;;;;;4995118;28;20504;-67
2023/12/21 11:53:15;;;;;;;10.75;2.55;;;10.80;99.90;;;;;;5011606;28;19932;-67
2023/12/21 11:55:43;;;;;;;9.90;2.47;;;11.00;99.90;;;;;;4993866;28;20065;-67
2023/12/21 11:58:21;;;;;;;13.27;2.72;;;11.20;99.90;;;;;;5009712;28;20062;-67
2023/12/21 12:00:54;;;;;;;11.65;2.92;;;10.90;99.90;;;;;;4994174;28;20046;-67
2023/12/21 12:03:23;;;;;;;12.70;3.17;;;11.10;99.90;;;;;;5009790;28;20720;-66
2023/12/21 12:05:53;;;;;;;15.88;3.47;;;10.90;99.90;;;;;;4993246;28;20046;-64
2023/12/21 12:08:23;;;;;;;12.02;2.90;;;11.00;99.90;;;;;;5010040;28;20068;-66
2023/12/21 12:10:51;;;;;;;13.88;3.00;;;10.70;99.90;;;;;;5011453;28;20193;-65
2023/12/21 12:13:19;;;;;;;10.77;2.63;;;10.90;99.90;;;;;;5011051;28;20076;-66
2023/12/21 12:15:50;;;;;;;9.82;3.00;;;10.80;99.90;;;;;;5011209;28;20060;-66
2023/12/21 12:18:17;;;;;;;10.05;2.50;;;11.10;99.90;;;;;;5010924;28;20046;-67
2023/12/21 12:20:44;;;;;;;9.52;2.42;;;10.90;99.90;;;;;;5011307;28;20061;-66
2023/12/21 12:23:11;;;;;;;13.40;3.05;;;10.80;99.90;;;;;;5010826;28;20069;-67
2023/12/21 12:25:38;;;;;;;15.90;3.28;;;10.80;99.90;;;;;;5010685;28;20042;-66
2023/12/21 12:28:04;;;;;;;13.40;3.05;;;11.10;99.90;;;;;;5010493;28;20478;-65
2023/12/21 12:30:31;;;;;;;12.27;3.15;;;11.10;99.90;;;;;;4993320;28;20073;-65
2023/12/21 12:33:03;;;;;;;17.58;3.35;;;11.10;99.90;;;;;;5008118;28;20046;-67
2023/12/21 12:35:36;;;;;;;14.32;3.75;;;11.10;99.90;;;;;;5009181;28;20050;-67
2023/12/21 12:38:04;;;;;;;14.10;3.03;;;11.20;99.90;;;;;;4992630;28;20052;-66
2023/12/21 12:40:30;;;;;;;16.70;3.65;;;11.10;99.90;;;;;;5009579;28;20399;-67
2023/12/21 12:42:56;;;;;;;15.10;3.88;;;11.00;99.90;;;;;;5009433;28;20386;-65
2023/12/21 12:45:23;;;;;;;16.75;3.65;;;11.00;99.90;;;;;;5008664;28;20057;-67
2023/12/21 12:47:52;;;;;;;17.60;3.92;;;11.30;99.90;;;;;;4993297;28;20124;-67